Time;durP1;ratioP1;P1;durP2;ratioP2;P2;SDS_P1;SDS_P2;PMS_P1;PMS_P2;Temp;Humidity;BMP_temperature;BMP_pressure;BME280_temperature;BME280_humidity;BME280_pressure;Samples;Min_cycle;Max_cycle;Signal;HPM_P1;HPM_P2
2022/03/16 00:02:20;;;;;;;13.45;6.55;;;-3.10;66.90;;;;;;5092992;28;20429;-76
2022/03/16 00:04:49;;;;;;;11.82;6.50;;;-3.10;67.10;;;;;;5092954;28;20102;-74
2022/03/16 00:07:16;;;;;;;10.35;6.28;;;-3.10;67.20;;;;;;5092597;28;20032;-75
2022/03/16 00:09:42;;;;;;;9.70;6.45;;;-3.10;67.10;;;;;;5092821;28;20048;-75
2022/03/16 00:12:09;;;;;;;11.27;6.40;;;-3.10;67.20;;;;;;5092796;28;20028;-75
2022/03/16 00:14:35;;;;;;;8.70;6.32;;;-3.20;67.40;;;;;;5074238;28;20052;-74
2022/03/16 00:17:02;;;;;;;13.05;5.80;;;-3.20;67.50;;;;;;5091701;28;20388;-74
2022/03/16 00:19:28;;;;;;;8.85;6.63;;;-3.20;67.60;;;;;;5092469;28;20432;-75
2022/03/16 00:21:53;;;;;;;11.75;7.55;;;-3.20;67.70;;;;;;5092489;28;20027;-75
2022/03/16 00:24:19;;;;;;;10.65;6.65;;;-3.20;67.60;;;;;;5092644;28;20089;-73
2022/03/16 00:26:45;;;;;;;11.15;7.38;;;-3.20;68.30;;;;;;5092808;28;20044;-75
2022/03/16 00:29:11;;;;;;;9.70;6.22;;;-3.20;67.80;;;;;;5092322;28;20012;-77
2022/03/16 00:31:37;;;;;;;11.45;7.53;;;-3.20;67.90;;;;;;5092271;28;20073;-75
2022/03/16 00:34:02;;;;;;;14.23;7.28;;;-3.20;68.00;;;;;;5092143;28;20338;-74
2022/03/16 00:36:28;;;;;;;10.65;7.43;;;-3.30;68.10;;;;;;5092106;28;20020;-75
2022/03/16 00:38:54;;;;;;;8.13;6.75;;;-3.30;68.20;;;;;;5092155;28;20032;-74
2022/03/16 00:41:20;;;;;;;9.63;6.57;;;-3.30;68.30;;;;;;5092200;28;20016;-74
2022/03/16 00:43:46;;;;;;;11.05;8.55;;;-3.40;68.50;;;;;;5092377;28;20028;-75
2022/03/16 00:46:12;;;;;;;11.20;7.22;;;-3.40;68.60;;;;;;5073919;28;20485;-75
2022/03/16 00:48:37;;;;;;;14.82;7.43;;;-3.40;68.70;;;;;;5092142;28;20384;-74
2022/03/16 00:51:03;;;;;;;11.35;7.90;;;-3.40;68.70;;;;;;5092035;28;20027;-74
2022/03/16 00:53:30;;;;;;;12.77;7.88;;;-3.40;68.80;;;;;;5091881;28;20109;-74
2022/03/16 00:55:56;;;;;;;12.23;8.07;;;-3.40;68.90;;;;;;5092268;28;20016;-74
2022/03/16 00:58:24;;;;;;;11.35;7.45;;;-3.40;68.90;;;;;;5091569;28;20353;-75
2022/03/16 01:00:50;;;;;;;;;;;-3.40;69.30;;;;;;5092318;28;20051;-75
2022/03/16 01:03:16;;;;;;;12.30;7.57;;;-3.40;69.00;;;;;;5092076;28;19985;-75
2022/03/16 01:05:42;;;;;;;13.03;7.77;;;-3.40;69.00;;;;;;5092037;28;20039;-74
2022/03/16 01:08:08;;;;;;;12.48;7.55;;;-3.40;69.10;;;;;;5091923;28;20257;-74
2022/03/16 01:10:34;;;;;;;10.65;8.35;;;-3.40;69.20;;;;;;5088743;28;20085;-75
2022/03/16 01:13:00;;;;;;;12.73;7.40;;;-3.40;69.20;;;;;;5091540;28;20032;-75
2022/03/16 01:15:26;;;;;;;11.20;7.43;;;-3.40;69.50;;;;;;5091603;28;20048;-76
2022/03/16 01:17:52;;;;;;;12.77;7.22;;;-3.40;69.70;;;;;;5091613;28;20024;-74
2022/03/16 01:20:18;;;;;;;17.30;8.75;;;-3.40;69.70;;;;;;5073481;28;20024;-75
2022/03/16 01:22:44;;;;;;;13.80;7.80;;;-3.40;69.60;;;;;;5091537;28;20443;-74
2022/03/16 01:25:11;;;;;;;12.85;8.25;;;-3.40;69.60;;;;;;5091932;28;20381;-74
2022/03/16 01:27:37;;;;;;;10.90;7.67;;;-3.40;69.70;;;;;;5091414;28;20024;-74
2022/03/16 01:30:03;;;;;;;13.93;8.23;;;-3.50;69.80;;;;;;5091507;28;20111;-74
2022/03/16 01:32:29;;;;;;;13.77;9.13;;;-3.50;69.90;;;;;;5073130;28;20032;-74
2022/03/16 01:34:55;;;;;;;12.70;9.18;;;-3.50;70.10;;;;;;5091298;28;20256;-74
2022/03/16 01:37:21;;;;;;;13.52;8.60;;;-3.50;70.00;;;;;;5091545;28;20107;-74
2022/03/16 01:39:47;;;;;;;13.55;8.70;;;-3.50;70.20;;;;;;5091528;28;20028;-73
2022/03/16 01:42:13;;;;;;;14.95;9.18;;;-3.50;70.00;;;;;;5073624;28;20069;-75
2022/03/16 01:44:48;;;;;;;13.27;10.35;;;-3.60;70.30;;;;;;5091514;28;20058;-74
2022/03/16 01:47:16;;;;;;;18.05;9.70;;;-3.60;70.50;;;;;;5091777;28;20050;-74
2022/03/16 01:49:42;;;;;;;11.27;8.07;;;-3.60;70.50;;;;;;5091626;28;20031;-73
2022/03/16 01:52:10;;;;;;;11.95;9.27;;;-3.60;70.60;;;;;;5091626;28;20376;-74
2022/03/16 01:54:38;;;;;;;16.92;9.80;;;-3.60;70.70;;;;;;5073278;28;20087;-74
2022/03/16 01:57:04;;;;;;;14.70;10.50;;;-3.60;70.70;;;;;;5091395;28;20579;-75
2022/03/16 01:59:30;;;;;;;12.85;9.45;;;-3.60;70.80;;;;;;5091277;28;20067;-74
2022/03/16 02:01:57;;;;;;;10.85;8.25;;;-3.60;70.70;;;;;;5091433;28;20385;-74
2022/03/16 02:04:23;;;;;;;15.85;8.70;;;-3.60;70.90;;;;;;5091368;28;20020;-75
2022/03/16 02:06:49;;;;;;;14.82;9.18;;;-3.60;70.80;;;;;;5091421;28;20383;-74
2022/03/16 02:09:15;;;;;;;12.32;7.78;;;-3.60;71.00;;;;;;5092722;28;20349;-75
2022/03/16 02:11:40;;;;;;;10.52;8.35;;;-3.70;71.00;;;;;;5094963;28;20024;-76
2022/03/16 02:14:06;;;;;;;15.68;7.95;;;-3.70;71.10;;;;;;5094754;28;20137;-75
2022/03/16 02:16:35;;;;;;;14.95;7.53;;;-3.70;71.20;;;;;;5094748;28;20472;-75
2022/03/16 02:19:01;;;;;;;11.57;8.48;;;-3.70;71.50;;;;;;5094900;28;20026;-75
2022/03/16 02:21:31;;;;;;;12.02;7.82;;;-3.70;71.40;;;;;;5095059;28;20106;-74
2022/03/16 02:23:57;;;;;;;11.77;9.02;;;-3.70;71.40;;;;;;5094881;28;20481;-74
2022/03/16 02:26:26;;;;;;;14.57;9.15;;;-3.70;71.40;;;;;;5094836;28;20103;-76
2022/03/16 02:28:53;;;;;;;13.07;8.30;;;-3.70;71.70;;;;;;5076572;28;20027;-73
2022/03/16 02:31:20;;;;;;;12.45;7.95;;;-3.70;71.60;;;;;;5094959;28;20039;-74
2022/03/16 02:33:45;;;;;;;12.80;8.70;;;-3.80;71.60;;;;;;5094471;28;20040;-75
2022/03/16 02:36:11;;;;;;;11.00;8.32;;;-3.80;71.70;;;;;;5094389;28;20137;-74
2022/03/16 02:38:37;;;;;;;16.17;9.27;;;-3.80;71.70;;;;;;5094335;28;20024;-74
2022/03/16 02:41:03;;;;;;;14.77;10.45;;;-3.80;71.90;;;;;;5093185;28;20058;-74
2022/03/16 02:43:29;;;;;;;16.73;8.63;;;-3.90;72.10;;;;;;5094489;28;20028;-75
2022/03/16 02:45:55;;;;;;;10.43;7.80;;;-3.90;72.30;;;;;;5094428;28;20098;-73
2022/03/16 02:48:21;;;;;;;14.50;8.32;;;-3.90;72.30;;;;;;5076042;28;20074;-76
2022/03/16 02:50:48;;;;;;;13.82;8.05;;;-3.90;72.40;;;;;;5075987;28;20047;-75
2022/03/16 02:53:15;;;;;;;15.93;10.52;;;-3.90;72.40;;;;;;5094023;28;20036;-76
2022/03/16 02:55:41;;;;;;;9.73;6.00;;;-3.80;72.50;;;;;;5096375;28;20103;-74
2022/03/16 02:58:07;;;;;;;12.55;7.63;;;-3.90;72.40;;;;;;5094140;28;20544;-77
2022/03/16 03:00:34;;;;;;;10.85;7.47;;;-3.90;72.70;;;;;;5093974;28;20073;-75
2022/03/16 03:03:00;;;;;;;13.15;9.20;;;-3.90;72.70;;;;;;5093808;28;20032;-77
2022/03/16 03:05:25;;;;;;;9.40;7.22;;;-3.90;72.80;;;;;;5093870;28;20031;-76
2022/03/16 03:07:51;;;;;;;17.77;9.70;;;-3.90;72.90;;;;;;5093853;28;20028;-75
2022/03/16 03:10:17;;;;;;;15.75;7.90;;;-3.90;72.80;;;;;;5075677;28;20027;-76
2022/03/16 03:12:43;;;;;;;15.80;8.15;;;-3.90;73.00;;;;;;5090806;28;20393;-76
2022/03/16 03:15:13;;;;;;;9.27;7.13;;;-3.90;73.20;;;;;;5075204;28;20051;-76
2022/03/16 03:17:40;;;;;;;15.65;8.50;;;-3.90;73.10;;;;;;5093595;28;20126;-75
2022/03/16 03:20:07;;;;;;;13.85;10.13;;;-3.90;73.20;;;;;;5093487;28;20044;-77
2022/03/16 03:22:33;;;;;;;11.25;7.45;;;-3.90;73.30;;;;;;5075439;28;20024;-77
2022/03/16 03:25:00;;;;;;;17.15;9.65;;;-3.90;73.30;;;;;;5093463;28;20034;-76
2022/03/16 03:27:26;;;;;;;15.32;10.63;;;-3.90;73.40;;;;;;5093388;28;20027;-75
2022/03/16 03:29:52;;;;;;;20.80;10.02;;;-3.90;73.60;;;;;;5075308;28;20032;-75
2022/03/16 03:32:18;;;;;;;16.33;10.90;;;-4.00;73.70;;;;;;5093244;28;20032;-76
2022/03/16 03:34:47;;;;;;;13.48;10.55;;;-4.00;74.00;;;;;;5093552;28;20036;-75
2022/03/16 03:37:17;;;;;;;21.80;10.95;;;-4.00;74.10;;;;;;5093267;28;20016;-76
2022/03/16 03:39:43;;;;;;;16.17;10.77;;;-4.00;74.20;;;;;;5093139;28;20026;-76
2022/03/16 03:42:09;;;;;;;14.55;9.35;;;-4.10;74.10;;;;;;5093036;28;20109;-77
2022/03/16 03:44:37;;;;;;;13.85;9.55;;;-4.10;74.30;;;;;;5093234;28;20032;-76
2022/03/16 03:47:05;;;;;;;18.23;12.10;;;-4.10;74.50;;;;;;5093233;28;20035;-77
2022/03/16 03:49:33;;;;;;;24.25;14.55;;;-4.10;74.60;;;;;;5093076;28;20492;-77
2022/03/16 03:51:59;;;;;;;17.27;11.93;;;-4.00;75.10;;;;;;5092966;28;20102;-75
2022/03/16 03:54:25;;;;;;;21.23;13.00;;;-4.00;75.10;;;;;;5092849;28;20032;-75
2022/03/16 03:56:51;;;;;;;18.60;11.73;;;-3.90;75.40;;;;;;5092878;28;20354;-75
2022/03/16 03:59:17;;;;;;;21.30;11.07;;;-3.90;75.60;;;;;;5092828;28;20035;-76
2022/03/16 04:01:43;;;;;;;17.23;11.13;;;-3.90;75.50;;;;;;5092823;28;20504;-74
2022/03/16 04:04:08;;;;;;;14.00;9.23;;;-3.90;76.00;;;;;;5074579;28;20024;-76
2022/03/16 04:06:34;;;;;;;17.40;10.55;;;-3.90;74.80;;;;;;5092867;28;20060;-76
2022/03/16 04:09:00;;;;;;;20.85;13.18;;;-4.00;74.50;;;;;;5074766;28;20031;-77
2022/03/16 04:11:26;;;;;;;22.95;12.27;;;-3.90;74.60;;;;;;5092838;28;20028;-77
2022/03/16 04:13:52;;;;;;;17.42;11.77;;;-3.90;74.80;;;;;;5092874;28;20047;-75
2022/03/16 04:16:17;;;;;;;18.17;12.57;;;-3.90;74.80;;;;;;5075381;28;20461;-77
2022/03/16 04:18:43;;;;;;;17.05;11.40;;;-3.80;74.80;;;;;;5074504;28;20070;-74
2022/03/16 04:21:09;;;;;;;17.10;11.18;;;-3.80;74.50;;;;;;5092470;28;20096;-77
2022/03/16 04:23:35;;;;;;;18.60;11.65;;;-3.80;74.30;;;;;;5092345;28;20036;-75
2022/03/16 04:26:00;;;;;;;17.27;11.30;;;-3.80;74.00;;;;;;5092326;28;20023;-76
2022/03/16 04:28:26;;;;;;;15.90;12.15;;;-3.60;74.10;;;;;;5092572;28;20024;-76
2022/03/16 04:30:52;;;;;;;20.63;12.05;;;-3.60;73.80;;;;;;5092553;28;20044;-75
2022/03/16 04:33:18;;;;;;;19.10;12.60;;;-3.70;73.60;;;;;;5091959;28;20032;-75
2022/03/16 04:35:44;;;;;;;21.52;12.10;;;-3.70;73.50;;;;;;5092204;28;20020;-78
2022/03/16 04:38:10;;;;;;;17.08;12.15;;;-3.70;73.50;;;;;;5092193;28;20147;-76
2022/03/16 04:40:36;;;;;;;22.88;11.15;;;-3.80;73.50;;;;;;5092041;28;20024;-77
2022/03/16 04:43:02;;;;;;;14.98;10.57;;;-3.80;73.60;;;;;;5073756;28;20501;-75
2022/03/16 04:45:28;;;;;;;19.77;10.90;;;-3.80;73.80;;;;;;5091683;28;20028;-75
2022/03/16 04:47:53;;;;;;;16.83;10.90;;;-3.70;73.80;;;;;;5092152;28;20031;-77
2022/03/16 04:50:20;;;;;;;20.33;12.23;;;-3.70;73.90;;;;;;5091926;28;20032;-75
2022/03/16 04:52:47;;;;;;;20.58;12.05;;;-3.60;74.00;;;;;;5092026;28;20111;-76
2022/03/16 04:55:13;;;;;;;18.00;12.05;;;-3.70;73.90;;;;;;5092070;28;20027;-77
2022/03/16 04:57:39;;;;;;;18.98;11.95;;;-3.60;73.80;;;;;;5092127;28;20473;-77
2022/03/16 05:00:06;;;;;;;25.00;12.45;;;-3.70;73.80;;;;;;5091838;28;20067;-77
2022/03/16 05:02:32;;;;;;;19.35;11.02;;;-3.60;74.00;;;;;;5091592;28;20024;-75
2022/03/16 05:04:57;;;;;;;22.88;13.70;;;-3.60;73.90;;;;;;5091820;28;20111;-77
2022/03/16 05:07:23;;;;;;;21.85;14.23;;;-3.60;74.10;;;;;;5091880;28;20016;-76
2022/03/16 05:09:49;;;;;;;22.35;13.20;;;-3.50;74.30;;;;;;5091738;28;20031;-76
2022/03/16 05:12:15;;;;;;;21.13;12.77;;;-3.50;74.40;;;;;;5090757;28;20094;-76
2022/03/16 05:14:40;;;;;;;17.42;12.15;;;-3.40;74.20;;;;;;5091356;28;20408;-75
2022/03/16 05:17:06;;;;;;;24.00;13.10;;;-3.40;74.10;;;;;;5074625;28;20115;-74
2022/03/16 05:19:32;;;;;;;23.48;13.07;;;-3.40;74.20;;;;;;5091538;28;20477;-77
2022/03/16 05:21:58;;;;;;;24.02;14.35;;;-3.30;74.40;;;;;;5091663;28;20157;-77
2022/03/16 05:24:26;;;;;;;24.75;14.13;;;-3.30;74.30;;;;;;5091483;28;20043;-75
2022/03/16 05:26:52;;;;;;;;;;;-3.30;74.10;;;;;;5092150;28;20020;-75
2022/03/16 05:29:18;;;;;;;23.65;13.27;;;-3.30;73.80;;;;;;5091545;28;19987;-76
2022/03/16 05:31:44;;;;;;;21.98;12.75;;;-3.20;73.80;;;;;;5091426;28;20107;-75
2022/03/16 05:34:10;;;;;;;16.30;10.02;;;-3.20;73.90;;;;;;5073130;28;20043;-77
2022/03/16 05:36:35;;;;;;;16.80;11.25;;;-3.10;73.90;;;;;;5091293;28;20020;-77
2022/03/16 05:39:03;;;;;;;18.67;11.57;;;-3.10;74.30;;;;;;5091539;28;20051;-74
2022/03/16 05:41:30;;;;;;;19.85;11.00;;;-3.00;73.60;;;;;;5091352;28;20043;-76
2022/03/16 05:43:56;;;;;;;24.40;13.52;;;-3.00;73.20;;;;;;5092417;28;20031;-75
2022/03/16 05:46:22;;;;;;;17.65;11.27;;;-2.90;73.40;;;;;;5076791;28;20020;-77
2022/03/16 05:48:47;;;;;;;27.55;14.38;;;-2.70;72.90;;;;;;5080759;28;20081;-78
2022/03/16 05:51:13;;;;;;;21.27;11.65;;;-2.60;72.30;;;;;;5076538;28;20469;-77
2022/03/16 05:53:39;;;;;;;22.55;12.57;;;-2.50;71.90;;;;;;5080329;28;20421;-75
2022/03/16 05:56:05;;;;;;;23.27;13.52;;;-2.50;71.00;;;;;;5074641;28;20094;-75
2022/03/16 05:58:31;;;;;;;19.90;12.30;;;-2.50;70.80;;;;;;5075247;28;20477;-77
2022/03/16 06:00:57;;;;;;;22.02;13.88;;;-2.40;70.90;;;;;;5089951;28;20028;-76
2022/03/16 06:03:23;;;;;;;20.80;13.32;;;-2.40;70.70;;;;;;5079462;28;20028;-78
2022/03/16 06:05:49;;;;;;;22.17;15.55;;;-2.30;70.50;;;;;;5085512;28;20029;-77
2022/03/16 06:08:14;;;;;;;17.65;11.45;;;-2.20;70.30;;;;;;5077189;28;20095;-76
2022/03/16 06:10:41;;;;;;;22.45;13.15;;;-2.20;69.80;;;;;;5088331;28;20027;-78
2022/03/16 06:13:06;;;;;;;22.55;12.95;;;-2.30;69.70;;;;;;5094130;28;20035;-76
2022/03/16 06:15:44;;;;;;;20.58;12.57;;;-2.20;69.70;;;;;;5094552;28;20040;-78
2022/03/16 06:18:11;;;;;;;15.40;10.90;;;-2.20;69.50;;;;;;5076554;28;20124;-76
2022/03/16 06:20:37;;;;;;;24.33;12.85;;;-2.20;69.40;;;;;;5076945;28;20093;-79
2022/03/16 06:23:05;;;;;;;20.17;12.50;;;-2.20;69.30;;;;;;5077091;28;20060;-78
2022/03/16 06:25:32;;;;;;;13.60;10.10;;;-2.20;69.00;;;;;;5095772;28;20467;-78
2022/03/16 06:27:58;;;;;;;15.45;9.65;;;-2.10;68.60;;;;;;5095375;28;20479;-78
2022/03/16 06:30:24;;;;;;;15.77;9.32;;;-2.10;68.60;;;;;;5076760;28;20119;-81
2022/03/16 06:32:51;;;;;;;22.42;11.35;;;-2.10;68.30;;;;;;5094525;28;20427;-80
2022/03/16 06:35:16;;;;;;;19.00;10.95;;;-2.10;68.30;;;;;;5094531;28;20020;-80
2022/03/16 06:37:43;;;;;;;14.45;9.27;;;-2.10;68.10;;;;;;5094621;28;20016;-79
2022/03/16 06:40:10;;;;;;;13.50;8.95;;;-2.10;68.00;;;;;;5094499;28;20027;-79
2022/03/16 06:42:47;;;;;;;15.85;9.50;;;-2.10;67.80;;;;;;5094251;28;20023;-80
2022/03/16 06:45:13;;;;;;;14.13;8.73;;;-2.00;67.80;;;;;;5094780;28;20023;-81
2022/03/16 06:47:39;;;;;;;13.25;9.90;;;-1.90;67.50;;;;;;5094431;28;20024;-82
2022/03/16 06:50:06;;;;;;;15.95;10.13;;;-2.00;67.10;;;;;;5094444;28;20093;-82
2022/03/16 06:52:32;;;;;;;16.73;8.90;;;-1.90;66.80;;;;;;5094913;28;20016;-77
2022/03/16 06:54:58;;;;;;;13.52;9.40;;;-1.90;66.50;;;;;;5093878;28;20024;-80
2022/03/16 06:57:24;;;;;;;15.77;8.00;;;-1.80;66.60;;;;;;5095177;28;20092;-79
2022/03/16 06:59:50;;;;;;;14.40;9.00;;;-1.70;66.60;;;;;;5094382;28;20028;-80
2022/03/16 07:02:16;;;;;;;15.50;9.02;;;-1.70;66.30;;;;;;5094059;28;20051;-80
2022/03/16 07:04:42;;;;;;;16.30;9.50;;;-1.60;66.10;;;;;;5094025;28;20020;-81
2022/03/16 07:07:07;;;;;;;14.98;10.60;;;-1.60;66.20;;;;;;5093866;28;20023;-80
2022/03/16 07:09:33;;;;;;;15.07;9.50;;;-1.50;66.20;;;;;;5093901;28;20025;-79
2022/03/16 07:11:59;;;;;;;15.68;9.55;;;-1.60;64.90;;;;;;5094104;28;20097;-78
2022/03/16 07:14:31;;;;;;;14.40;9.80;;;-1.60;64.70;;;;;;5077023;28;20077;-78
2022/03/16 07:17:00;;;;;;;13.82;9.32;;;-1.60;65.30;;;;;;5094775;28;20031;-80
2022/03/16 07:19:26;;;;;;;16.15;8.73;;;-1.60;64.50;;;;;;5093765;28;20115;-80
2022/03/16 07:21:52;;;;;;;10.18;7.13;;;-1.40;63.90;;;;;;5093598;28;20485;-80
2022/03/16 07:24:17;;;;;;;12.10;8.65;;;-1.30;63.30;;;;;;5075325;28;20067;-78
2022/03/16 07:26:44;;;;;;;14.65;10.50;;;-1.20;63.40;;;;;;5093578;28;20028;-80
2022/03/16 07:29:09;;;;;;;14.60;9.60;;;-1.10;62.70;;;;;;5093515;28;20020;-79
2022/03/16 07:31:35;;;;;;;16.92;8.70;;;-1.00;62.50;;;;;;5093170;28;20016;-81
2022/03/16 07:34:01;;;;;;;13.10;8.05;;;-0.90;62.40;;;;;;5075118;28;20124;-79
2022/03/16 07:36:27;;;;;;;10.90;7.90;;;-0.40;61.40;;;;;;5093821;28;20016;-81
2022/03/16 07:38:54;;;;;;;16.63;8.85;;;0.90;61.70;;;;;;5093449;28;20047;-79
2022/03/16 07:41:19;;;;;;;8.32;5.07;;;3.20;59.40;;;;;;5093244;28;20502;-80
2022/03/16 07:43:46;;;;;;;11.95;7.80;;;5.50;51.00;;;;;;5092967;28;20024;-79
2022/03/16 07:46:11;;;;;;;16.55;8.75;;;6.40;47.50;;;;;;5093166;28;20055;-80
2022/03/16 07:48:39;;;;;;;10.55;7.63;;;7.40;44.90;;;;;;5093227;28;20048;-79
2022/03/16 07:51:05;;;;;;;10.95;8.25;;;8.40;42.70;;;;;;5093716;28;20397;-82
2022/03/16 07:53:31;;;;;;;13.73;8.35;;;8.60;40.00;;;;;;5092831;28;20061;-81
2022/03/16 07:55:57;;;;;;;15.02;9.00;;;8.40;38.90;;;;;;5092929;28;20024;-81
2022/03/16 07:58:23;;;;;;;12.18;8.48;;;8.60;39.30;;;;;;5092781;28;20020;-81
2022/03/16 08:00:49;;;;;;;12.32;8.07;;;8.60;38.00;;;;;;5092915;28;20488;-80
2022/03/16 08:03:15;;;;;;;9.95;8.25;;;8.30;39.20;;;;;;5092779;28;20089;-80
2022/03/16 08:05:41;;;;;;;12.63;8.02;;;8.70;38.80;;;;;;5074564;28;20381;-82
2022/03/16 08:08:07;;;;;;;15.05;9.05;;;9.30;37.80;;;;;;5092000;28;20032;-80
2022/03/16 08:10:33;;;;;;;9.98;8.07;;;10.10;37.10;;;;;;5074362;28;20024;-81
2022/03/16 08:12:58;;;;;;;10.43;7.22;;;9.80;34.60;;;;;;5092667;28;20035;-81
2022/03/16 08:15:24;;;;;;;14.15;8.45;;;8.00;36.10;;;;;;5092318;28;20051;-81
2022/03/16 08:17:51;;;;;;;9.40;7.07;;;7.50;38.40;;;;;;5095188;28;20067;-81
2022/03/16 08:20:17;;;;;;;10.80;8.13;;;7.30;38.00;;;;;;5092280;28;20525;-81
2022/03/16 08:22:42;;;;;;;15.38;7.82;;;7.60;38.60;;;;;;5092177;28;20086;-81
2022/03/16 08:25:10;;;;;;;13.98;8.45;;;8.10;38.20;;;;;;5092305;28;20032;-80
2022/03/16 08:27:37;;;;;;;14.68;9.10;;;7.00;37.50;;;;;;5092219;28;20066;-78
2022/03/16 08:30:05;;;;;;;11.40;7.70;;;6.60;39.30;;;;;;5092467;28;20028;-79
2022/03/16 08:32:31;;;;;;;15.30;8.55;;;7.40;38.80;;;;;;5074714;28;20370;-81
2022/03/16 08:34:57;;;;;;;26.33;11.98;;;7.60;38.00;;;;;;5094548;28;20043;-80
2022/03/16 08:37:22;;;;;;;14.93;8.90;;;7.30;38.40;;;;;;5093098;28;20018;-80
2022/03/16 08:39:49;;;;;;;14.88;8.25;;;7.90;38.30;;;;;;5092848;28;20082;-79
2022/03/16 08:42:15;;;;;;;18.42;8.40;;;8.00;36.50;;;;;;5092603;28;20059;-81
2022/03/16 08:44:45;;;;;;;12.43;8.57;;;7.80;36.80;;;;;;5075910;28;20086;-79
2022/03/16 08:47:16;;;;;;;16.17;8.35;;;6.90;36.70;;;;;;5074756;28;20032;-79
2022/03/16 08:49:45;;;;;;;15.45;9.82;;;5.50;38.60;;;;;;5075713;28;20024;-80
2022/03/16 08:52:11;;;;;;;17.58;8.93;;;4.80;40.60;;;;;;5092389;28;20565;-80
2022/03/16 08:54:38;;;;;;;25.92;15.27;;;4.70;41.10;;;;;;5092249;28;20127;-81
2022/03/16 08:57:04;;;;;;;15.85;8.93;;;4.80;42.30;;;;;;5092197;28;20387;-81
2022/03/16 08:59:30;;;;;;;13.05;8.48;;;4.70;41.50;;;;;;5092035;28;20054;-79
2022/03/16 09:01:56;;;;;;;13.88;9.75;;;5.10;42.10;;;;;;5092157;28;20051;-80
2022/03/16 09:04:21;;;;;;;12.25;9.10;;;6.20;40.80;;;;;;5093171;28;20039;-82
2022/03/16 09:06:50;;;;;;;12.55;8.00;;;7.00;38.80;;;;;;5091946;28;20028;-82
2022/03/16 09:09:16;;;;;;;15.45;11.02;;;7.70;38.40;;;;;;5091980;28;20028;-80
2022/03/16 09:11:42;;;;;;;12.93;9.07;;;8.70;37.30;;;;;;5091861;28;20107;-81
2022/03/16 09:14:08;;;;;;;11.40;8.93;;;9.50;35.80;;;;;;5092211;28;20511;-79
2022/03/16 09:16:34;;;;;;;14.18;10.52;;;9.90;34.40;;;;;;5092144;28;20534;-81
2022/03/16 09:19:00;;;;;;;16.53;11.10;;;9.90;34.30;;;;;;5094927;28;20024;-80
2022/03/16 09:21:26;;;;;;;11.40;8.57;;;10.20;34.70;;;;;;5096360;28;20647;-81
2022/03/16 09:23:53;;;;;;;14.40;9.32;;;11.60;33.80;;;;;;5095878;28;20028;-80
2022/03/16 09:26:21;;;;;;;11.13;7.43;;;13.00;31.20;;;;;;5096049;28;20028;-82
2022/03/16 09:28:47;;;;;;;10.85;8.05;;;13.60;30.60;;;;;;5095889;28;20047;-81
2022/03/16 09:31:13;;;;;;;14.30;9.55;;;12.00;30.20;;;;;;5096384;28;20091;-81
2022/03/16 09:33:40;;;;;;;14.23;10.18;;;11.50;32.50;;;;;;5078086;28;20089;-82
2022/03/16 09:36:08;;;;;;;20.27;10.25;;;12.50;32.00;;;;;;5061298;28;20027;-81
2022/03/16 09:38:34;;;;;;;;;;;13.60;30.50;;;;;;5095874;28;20031;-80
2022/03/16 09:41:02;;;;;;;12.65;10.02;;;14.30;29.80;;;;;;5095411;28;19904;-80
2022/03/16 09:43:32;;;;;;;16.05;9.85;;;13.40;29.40;;;;;;5077886;28;20021;-81
2022/03/16 09:46:11;;;;;;;13.38;10.02;;;12.80;29.90;;;;;;5077396;28;20454;-80
2022/03/16 09:48:39;;;;;;;15.10;9.23;;;12.00;30.70;;;;;;5095140;28;20500;-80
2022/03/16 09:51:05;;;;;;;14.60;9.38;;;11.90;30.70;;;;;;5095420;28;20024;-82
2022/03/16 09:53:31;;;;;;;12.77;9.70;;;11.30;30.60;;;;;;5095504;28;20400;-81
2022/03/16 09:55:58;;;;;;;11.80;8.02;;;11.30;31.80;;;;;;5095380;28;20024;-81
2022/03/16 09:58:24;;;;;;;14.45;8.95;;;11.70;31.50;;;;;;5095194;28;20035;-80
2022/03/16 10:00:55;;;;;;;11.55;8.75;;;11.60;30.60;;;;;;5095149;28;20024;-81
2022/03/16 10:03:23;;;;;;;11.70;9.00;;;10.60;30.90;;;;;;5095756;28;20023;-80
2022/03/16 10:05:50;;;;;;;10.25;7.63;;;9.40;32.40;;;;;;5095471;28;20073;-81
2022/03/16 10:08:30;;;;;;;23.25;11.13;;;8.10;33.40;;;;;;5076637;28;20082;-81
2022/03/16 10:14:11;;;;;;;15.65;7.07;;;9.50;34.50;;;;;;5094983;28;20443;-81
2022/03/16 10:19:25;;;;;;;15.52;8.93;;;9.20;33.80;;;;;;5095258;28;20595;-80
2022/03/16 10:22:00;;;;;;;15.15;9.38;;;10.00;32.90;;;;;;5077130;28;20473;-80
2022/03/16 10:24:29;;;;;;;12.57;8.75;;;9.50;32.60;;;;;;5096104;28;20020;-81
2022/03/16 10:26:59;;;;;;;9.75;7.57;;;8.90;33.20;;;;;;5094473;28;20024;-80
2022/03/16 10:29:31;;;;;;;11.23;8.38;;;8.30;33.70;;;;;;5093427;28;20024;-80
2022/03/16 10:32:14;;;;;;;18.65;8.95;;;7.60;34.30;;;;;;5094581;28;20043;-81
2022/03/16 10:34:55;;;;;;;9.07;7.10;;;5.90;36.30;;;;;;5076105;28;20085;-79
2022/03/16 10:37:22;;;;;;;10.98;6.97;;;4.80;38.20;;;;;;5094744;28;20017;-80
2022/03/16 10:39:49;;;;;;;;;;;4.40;39.30;;;;;;5096136;28;20027;-77
2022/03/16 10:48:19;;;;;;;13.93;5.95;;;3.10;42.00;;;;;;5095603;28;20039;-80
2022/03/16 10:50:46;;;;;;;15.00;8.88;;;2.90;42.60;;;;;;5094424;28;20032;-78
2022/03/16 10:53:14;;;;;;;5.05;4.13;;;2.70;43.20;;;;;;5072517;28;20032;-79
2022/03/16 10:55:41;;;;;;;7.60;4.72;;;2.40;43.30;;;;;;5074169;28;20074;-79
2022/03/16 10:58:08;;;;;;;9.10;5.90;;;2.00;44.10;;;;;;5074650;28;20452;-79
2022/03/16 11:00:36;;;;;;;10.20;7.85;;;1.90;45.30;;;;;;5058929;28;20261;-79
2022/03/16 11:03:14;;;;;;;9.02;5.80;;;2.00;45.00;;;;;;5074392;28;20113;-78
2022/03/16 11:05:40;;;;;;;12.13;8.40;;;1.90;45.20;;;;;;5074490;28;20059;-78
2022/03/16 11:08:08;;;;;;;13.63;7.30;;;1.80;46.30;;;;;;5074079;28;20024;-79
2022/03/16 11:10:39;;;;;;;15.10;8.25;;;1.80;46.40;;;;;;5073638;28;20378;-80
2022/03/16 11:15:51;;;;;;;10.77;6.55;;;2.10;46.00;;;;;;5074560;28;20052;-80
2022/03/16 11:18:18;;;;;;;23.25;8.80;;;2.40;45.60;;;;;;5073623;28;20198;-81
2022/03/16 11:20:56;;;;;;;8.43;6.75;;;2.40;45.20;;;;;;5055446;28;20024;-81
2022/03/16 11:27:00;;;;;;;9.68;5.78;;;2.20;44.80;;;;;;5073983;28;20035;-79
2022/03/16 11:30:06;;;;;;;8.80;6.30;;;2.20;45.00;;;;;;5045187;28;20040;-79
2022/03/16 11:32:42;;;;;;;11.83;7.33;;;2.10;44.80;;;;;;5073232;28;20025;-79
2022/03/16 11:35:18;;;;;;;8.20;6.43;;;2.00;44.60;;;;;;5073338;28;20020;-80
2022/03/16 11:37:51;;;;;;;14.38;6.57;;;2.00;44.30;;;;;;5073126;28;20257;-80
2022/03/16 11:40:20;;;;;;;10.38;5.55;;;2.00;44.30;;;;;;5073220;28;20056;-79
2022/03/16 11:43:04;;;;;;;9.82;5.25;;;1.90;44.30;;;;;;5072938;28;20543;-80
2022/03/16 11:45:36;;;;;;;13.88;6.15;;;1.60;45.10;;;;;;5073096;28;20032;-80
2022/03/16 11:48:36;;;;;;;13.40;6.40;;;1.40;45.40;;;;;;5054818;28;20382;-79
2022/03/16 11:51:13;;;;;;;7.57;6.00;;;1.40;45.60;;;;;;5072922;28;20389;-82
2022/03/16 11:53:58;;;;;;;8.10;5.13;;;1.50;45.30;;;;;;5089068;28;20093;-78
2022/03/16 11:56:29;;;;;;;6.90;5.60;;;1.50;45.20;;;;;;5093217;28;20020;-79
2022/03/16 11:59:09;;;;;;;11.38;7.20;;;1.20;45.50;;;;;;5092811;28;20059;-81
2022/03/16 12:01:37;;;;;;;11.32;7.00;;;1.20;46.50;;;;;;5093972;28;20385;-78
2022/03/16 12:04:16;;;;;;;9.23;5.88;;;1.20;46.40;;;;;;5092916;28;20024;-80
2022/03/16 12:07:05;;;;;;;13.45;7.35;;;1.30;46.20;;;;;;5093187;28;20543;-78
2022/03/16 12:09:43;;;;;;;13.85;8.63;;;1.40;46.70;;;;;;5074785;28;20048;-80
2022/03/16 12:15:11;;;;;;;14.77;7.53;;;1.50;46.70;;;;;;5092963;28;20055;-79
2022/03/16 12:18:07;;;;;;;11.70;7.30;;;1.40;46.80;;;;;;5092756;28;20150;-80
2022/03/16 12:20:49;;;;;;;10.38;7.30;;;1.30;46.40;;;;;;5081279;28;20032;-78
2022/03/16 12:23:37;;;;;;;8.50;5.65;;;1.20;46.80;;;;;;5093105;28;20043;-80
2022/03/16 12:26:04;;;;;;;14.27;7.47;;;1.10;46.90;;;;;;5092487;28;20023;-79
2022/03/16 12:31:16;;;;;;;11.77;7.65;;;1.00;47.10;;;;;;5093065;28;20408;-76
2022/03/16 12:33:48;;;;;;;11.10;5.90;;;1.00;47.30;;;;;;5074432;28;20047;-80
2022/03/16 12:36:16;;;;;;;10.63;5.90;;;1.10;47.30;;;;;;5092547;28;20103;-79
2022/03/16 12:38:46;;;;;;;7.88;5.35;;;1.30;47.40;;;;;;5074565;28;20028;-78
2022/03/16 12:43:59;;;;;;;12.23;6.95;;;1.40;46.60;;;;;;5092922;28;20081;-78
2022/03/16 12:46:33;;;;;;;16.67;6.70;;;1.50;47.20;;;;;;5074740;28;20028;-78
2022/03/16 12:49:04;;;;;;;12.80;6.10;;;1.60;46.20;;;;;;5093782;28;20350;-80
2022/03/16 12:51:37;;;;;;;8.43;5.88;;;1.50;46.50;;;;;;5072228;28;20040;-79
2022/03/16 12:54:07;;;;;;;11.75;5.80;;;1.50;46.10;;;;;;5072391;28;20098;-80
2022/03/16 12:56:55;;;;;;;11.98;6.63;;;1.50;45.70;;;;;;5073592;28;20504;-80
2022/03/16 12:59:34;;;;;;;8.23;5.22;;;1.60;46.20;;;;;;5070917;28;20115;-79
2022/03/16 13:02:03;;;;;;;10.57;5.75;;;1.60;45.60;;;;;;5072101;28;20025;-80
2022/03/16 13:04:29;;;;;;;13.02;7.13;;;1.30;45.70;;;;;;5072068;28;20452;-80
2022/03/16 13:06:56;;;;;;;7.45;5.30;;;1.30;46.00;;;;;;5071602;28;20107;-80
2022/03/16 13:09:30;;;;;;;6.10;5.50;;;1.40;45.80;;;;;;5053746;28;20039;-80
2022/03/16 13:12:05;;;;;;;7.40;5.60;;;1.40;45.60;;;;;;5071666;28;20048;-79